createdAt,value
2019-01-18T00:01:22.788Z,99.90
2019-01-18T00:03:50.020Z,99.90
2019-01-18T00:06:17.286Z,99.90
2019-01-18T00:08:44.629Z,99.90
2019-01-18T00:11:11.880Z,99.90
2019-01-18T00:13:39.050Z,99.90
2019-01-18T00:16:06.316Z,99.90
2019-01-18T00:18:33.586Z,99.90
2019-01-18T00:21:00.790Z,99.90
2019-01-18T00:23:28.767Z,99.90
2019-01-18T00:25:56.086Z,99.90
2019-01-18T00:28:23.271Z,99.90
2019-01-18T00:30:50.541Z,99.90
2019-01-18T00:33:17.764Z,99.90
2019-01-18T00:35:45.011Z,99.90
2019-01-18T00:38:12.168Z,99.90
2019-01-18T00:40:39.297Z,99.90
2019-01-18T00:43:06.475Z,99.90
2019-01-18T00:45:33.742Z,99.90
2019-01-18T00:48:01.019Z,99.90
2019-01-18T00:50:28.239Z,99.90
2019-01-18T00:52:55.528Z,99.90
2019-01-18T00:55:22.653Z,99.90
2019-01-18T00:57:49.792Z,99.90
2019-01-18T01:00:19.909Z,99.90
2019-01-18T01:02:47.148Z,99.90
2019-01-18T01:05:15.110Z,99.90
2019-01-18T01:07:42.338Z,99.90
2019-01-18T01:10:09.894Z,99.90
2019-01-18T01:12:37.128Z,99.90
2019-01-18T01:15:06.680Z,99.90
2019-01-18T01:17:33.982Z,99.90
2019-01-18T01:20:01.234Z,99.90
2019-01-18T01:22:28.412Z,99.90
2019-01-18T01:24:55.649Z,99.90
2019-01-18T01:27:22.870Z,99.90
2019-01-18T01:29:50.156Z,99.90
2019-01-18T01:32:17.488Z,99.90
2019-01-18T01:34:44.730Z,99.90
2019-01-18T01:37:12.021Z,99.90
2019-01-18T01:39:39.143Z,99.90
2019-01-18T01:42:06.420Z,99.90
2019-01-18T01:44:33.639Z,99.90
2019-01-18T01:47:00.911Z,99.90
2019-01-18T01:49:28.179Z,99.90
2019-01-18T01:51:55.433Z,99.90
2019-01-18T01:54:22.574Z,99.90
2019-01-18T01:56:49.839Z,99.90
2019-01-18T01:59:17.157Z,99.90
2019-01-18T02:01:44.421Z,99.90
2019-01-18T02:04:11.695Z,99.90
2019-01-18T02:06:39.010Z,99.90
2019-01-18T02:09:06.539Z,99.90
2019-01-18T02:11:33.829Z,99.90
2019-01-18T02:14:01.082Z,99.90
2019-01-18T02:16:28.364Z,99.90
2019-01-18T02:18:55.495Z,99.90
2019-01-18T02:21:22.736Z,99.90
2019-01-18T02:23:49.971Z,99.90
2019-01-18T02:26:17.132Z,99.90
2019-01-18T02:28:44.436Z,99.90
2019-01-18T02:31:11.583Z,99.90
2019-01-18T02:33:38.823Z,99.90
2019-01-18T02:36:05.990Z,99.90
2019-01-18T02:38:33.236Z,99.90
2019-01-18T02:41:00.502Z,99.90
2019-01-18T02:43:27.770Z,99.90
2019-01-18T02:45:54.922Z,99.90
2019-01-18T02:48:22.155Z,99.90
2019-01-18T02:50:49.849Z,99.90
2019-01-18T02:53:17.088Z,99.90
2019-01-18T02:55:44.338Z,99.90
2019-01-18T02:58:11.604Z,99.90
2019-01-18T03:00:38.841Z,99.90
2019-01-18T03:03:06.102Z,99.90
2019-01-18T03:05:33.338Z,99.90
2019-01-18T03:08:00.688Z,99.90
2019-01-18T03:10:29.206Z,99.90
2019-01-18T03:12:56.441Z,99.90
2019-01-18T03:15:23.582Z,99.90
2019-01-18T03:17:50.859Z,99.90
2019-01-18T03:20:18.157Z,99.90
2019-01-18T03:22:45.661Z,99.90
2019-01-18T03:25:15.537Z,99.90
2019-01-18T03:27:42.813Z,99.90
2019-01-18T03:30:19.027Z,99.90
2019-01-18T03:32:41.667Z,99.90
2019-01-18T03:35:10.581Z,99.90
2019-01-18T03:37:37.935Z,99.90
2019-01-18T03:40:05.094Z,99.90
2019-01-18T03:42:32.369Z,99.90
2019-01-18T03:44:59.533Z,99.90
2019-01-18T03:47:26.702Z,99.90
2019-01-18T03:49:53.987Z,99.90
2019-01-18T03:52:21.113Z,99.90
2019-01-18T03:54:48.346Z,99.90
2019-01-18T03:57:15.578Z,99.90
2019-01-18T03:59:42.830Z,99.90
2019-01-18T04:02:10.127Z,99.90
2019-01-18T04:04:37.255Z,99.90
2019-01-18T04:07:04.599Z,99.90
2019-01-18T04:09:31.829Z,99.90
2019-01-18T04:11:59.080Z,99.90
2019-01-18T04:14:26.320Z,99.90
2019-01-18T04:16:53.758Z,99.90
2019-01-18T04:19:21.022Z,99.90
2019-01-18T04:21:48.303Z,99.90
2019-01-18T04:24:15.551Z,99.90
2019-01-18T04:26:42.710Z,99.90
2019-01-18T04:29:09.976Z,99.90
2019-01-18T04:31:37.218Z,99.90
2019-01-18T04:34:04.453Z,99.90
2019-01-18T04:36:31.732Z,99.90
2019-01-18T04:38:58.959Z,99.90
2019-01-18T04:41:26.218Z,99.90
2019-01-18T04:43:53.467Z,99.90
2019-01-18T04:46:20.838Z,99.90
2019-01-18T04:48:48.163Z,99.90
2019-01-18T04:51:15.399Z,99.90
2019-01-18T04:53:42.529Z,99.90
2019-01-18T04:56:09.807Z,99.90
2019-01-18T04:58:36.948Z,99.90
2019-01-18T05:01:04.158Z,99.90
2019-01-18T05:03:31.337Z,99.90
2019-01-18T05:05:58.454Z,99.90
2019-01-18T05:08:25.709Z,99.90
2019-01-18T05:10:52.824Z,99.90
2019-01-18T05:13:20.080Z,99.90
2019-01-18T05:15:47.276Z,99.90
2019-01-18T05:18:14.443Z,99.90
2019-01-18T05:20:41.563Z,99.90
2019-01-18T05:23:08.800Z,99.90
2019-01-18T05:25:36.046Z,99.90
2019-01-18T05:28:03.302Z,99.90
2019-01-18T05:30:30.539Z,99.90
2019-01-18T05:32:57.690Z,99.90
2019-01-18T05:35:25.113Z,99.90
2019-01-18T05:37:52.339Z,99.90
2019-01-18T05:40:19.620Z,99.90
2019-01-18T05:42:47.082Z,99.90
2019-01-18T05:45:15.889Z,99.90
2019-01-18T05:47:43.154Z,99.90
2019-01-18T05:50:15.308Z,99.90
2019-01-18T05:52:42.597Z,99.90
2019-01-18T05:55:10.041Z,99.90
2019-01-18T05:57:37.310Z,99.90
2019-01-18T06:00:09.192Z,99.90
2019-01-18T06:02:36.451Z,99.90
2019-01-18T06:05:06.447Z,99.90
2019-01-18T06:07:33.721Z,99.90
2019-01-18T06:10:00.988Z,99.90
2019-01-18T06:12:28.112Z,99.90
2019-01-18T06:14:55.367Z,99.90
2019-01-18T06:17:22.512Z,99.90
2019-01-18T06:19:49.796Z,99.90
2019-01-18T06:22:17.046Z,99.90
2019-01-18T06:24:44.331Z,99.90
2019-01-18T06:27:11.491Z,99.90
2019-01-18T06:29:38.822Z,99.90
2019-01-18T06:32:05.954Z,99.90
2019-01-18T06:34:33.135Z,99.90
2019-01-18T06:37:00.398Z,99.90
2019-01-18T06:39:27.635Z,99.90
2019-01-18T06:41:55.044Z,99.90
2019-01-18T06:44:22.825Z,99.90
2019-01-18T06:46:50.528Z,99.90
2019-01-18T06:49:18.390Z,99.90
2019-01-18T06:51:45.670Z,99.90
2019-01-18T06:54:12.947Z,99.90
2019-01-18T06:56:40.093Z,99.90
2019-01-18T06:59:07.367Z,99.90
2019-01-18T07:01:34.582Z,99.90
2019-01-18T07:04:01.887Z,99.90
2019-01-18T07:06:29.031Z,99.90
2019-01-18T07:08:56.285Z,99.90
2019-01-18T07:11:23.565Z,99.90
2019-01-18T07:13:50.865Z,99.90
2019-01-18T07:16:18.083Z,99.90
2019-01-18T07:18:45.363Z,99.90
2019-01-18T07:21:12.607Z,99.10
2019-01-18T07:23:39.755Z,99.80
2019-01-18T07:26:06.889Z,99.50
2019-01-18T07:28:34.870Z,99.90
2019-01-18T07:31:02.129Z,99.20
2019-01-18T07:33:29.306Z,99.90
2019-01-18T07:35:56.459Z,99.90
2019-01-18T07:38:23.700Z,99.10
2019-01-18T07:40:51.084Z,98.90
2019-01-18T07:43:18.349Z,98.70
2019-01-18T07:45:45.798Z,98.90
2019-01-18T07:48:13.152Z,98.80
2019-01-18T07:50:40.320Z,97.60
2019-01-18T07:53:07.558Z,99.10
2019-01-18T07:55:34.792Z,97.40
2019-01-18T07:58:02.053Z,98.60
2019-01-18T08:00:29.538Z,98.90
2019-01-18T08:02:56.922Z,99.50
2019-01-18T08:05:26.409Z,99.90
2019-01-18T08:07:53.635Z,99.90
2019-01-18T08:10:20.939Z,99.90
2019-01-18T08:12:48.171Z,99.90
2019-01-18T08:15:19.967Z,99.10
2019-01-18T08:17:47.220Z,99.90
2019-01-18T08:20:15.761Z,99.40
2019-01-18T08:22:43.210Z,98.20
2019-01-18T08:25:11.383Z,99.10
2019-01-18T08:27:38.622Z,98.60
2019-01-18T08:30:09.115Z,98.60
2019-01-18T08:32:36.397Z,98.00
2019-01-18T08:35:04.117Z,96.20
2019-01-18T08:37:31.308Z,97.00
2019-01-18T08:39:58.575Z,96.20
2019-01-18T08:42:25.730Z,97.90
2019-01-18T08:44:53.051Z,97.40
2019-01-18T08:47:20.331Z,95.30
2019-01-18T08:49:47.568Z,95.00
2019-01-18T08:52:14.824Z,95.30
2019-01-18T08:54:42.092Z,95.60
2019-01-18T08:57:09.358Z,94.70
2019-01-18T08:59:36.636Z,93.90
2019-01-18T09:02:03.865Z,96.30
2019-01-18T09:04:31.121Z,96.30
2019-01-18T09:06:58.393Z,96.20
2019-01-18T09:09:25.653Z,97.50
2019-01-18T09:11:52.869Z,97.30
2019-01-18T09:14:20.123Z,97.10
2019-01-18T09:16:47.376Z,96.90
2019-01-18T09:19:14.625Z,97.90
2019-01-18T09:21:41.869Z,96.50
2019-01-18T09:24:08.990Z,97.40
2019-01-18T09:26:36.247Z,96.50
2019-01-18T09:29:03.594Z,95.90
2019-01-18T09:31:30.750Z,95.20
2019-01-18T09:33:57.885Z,95.60
2019-01-18T09:36:25.064Z,96.50
2019-01-18T09:38:52.306Z,95.90
2019-01-18T09:41:19.573Z,96.00
2019-01-18T09:43:46.813Z,96.60
2019-01-18T09:46:14.043Z,96.50
2019-01-18T09:48:41.173Z,95.60
2019-01-18T09:51:08.326Z,95.90
2019-01-18T09:53:35.569Z,95.90
2019-01-18T09:56:03.001Z,97.70
2019-01-18T09:58:30.166Z,95.70
2019-01-18T10:00:57.424Z,95.90
2019-01-18T10:03:24.647Z,96.00
2019-01-18T10:05:51.921Z,96.50
2019-01-18T10:08:19.228Z,96.30
2019-01-18T10:10:46.449Z,96.50
2019-01-18T10:13:13.774Z,97.00
2019-01-18T10:15:43.022Z,97.10
2019-01-18T10:18:10.221Z,95.80
2019-01-18T10:20:37.466Z,97.50
2019-01-18T10:23:04.843Z,97.50
2019-01-18T10:25:32.026Z,97.30
2019-01-18T10:28:00.521Z,96.60
2019-01-18T10:30:28.014Z,96.40
2019-01-18T10:32:55.411Z,97.00
2019-01-18T10:35:22.853Z,98.50
2019-01-18T10:37:50.101Z,99.20
2019-01-18T10:40:17.589Z,99.90
2019-01-18T10:42:45.044Z,99.90
2019-01-18T10:45:12.985Z,99.90
2019-01-18T10:47:40.225Z,99.60
2019-01-18T10:50:10.486Z,99.30
2019-01-18T10:52:37.763Z,98.30
2019-01-18T10:55:05.534Z,97.00
2019-01-18T10:57:32.810Z,95.50
2019-01-18T10:59:59.964Z,90.70
2019-01-18T11:02:27.209Z,83.20
2019-01-18T11:04:54.387Z,70.50
2019-01-18T11:07:21.669Z,63.60
2019-01-18T11:09:48.928Z,63.30
2019-01-18T11:12:16.198Z,55.50
2019-01-18T11:14:43.427Z,51.20
2019-01-18T11:17:10.738Z,51.20
2019-01-18T11:19:37.871Z,54.70
2019-01-18T11:22:05.056Z,54.50
2019-01-18T11:24:32.316Z,56.30
2019-01-18T11:26:59.579Z,55.50
2019-01-18T11:29:26.982Z,58.20
2019-01-18T11:31:54.330Z,64.00
2019-01-18T11:34:21.486Z,70.90
2019-01-18T11:36:48.723Z,73.90
2019-01-18T11:39:16.114Z,79.30
2019-01-18T11:41:43.353Z,84.40
2019-01-18T11:44:10.660Z,85.40
2019-01-18T11:46:37.912Z,89.40
2019-01-18T11:49:05.190Z,90.90
2019-01-18T11:51:32.313Z,92.50
2019-01-18T11:53:59.609Z,94.90
2019-01-18T11:56:26.849Z,95.50
2019-01-18T11:58:54.095Z,96.70
2019-01-18T12:01:21.278Z,97.70
2019-01-18T12:03:48.487Z,98.50
2019-01-18T12:06:15.761Z,98.10
2019-01-18T12:08:43.010Z,97.30
2019-01-18T12:11:10.359Z,96.50
2019-01-18T12:13:37.653Z,96.80
2019-01-18T12:16:04.969Z,97.10
2019-01-18T12:18:32.205Z,96.80
2019-01-18T12:20:59.404Z,96.90
2019-01-18T12:23:26.684Z,96.20
2019-01-18T12:25:53.949Z,95.90
2019-01-18T12:28:22.559Z,93.90
2019-01-18T12:31:00.440Z,94.00
2019-01-18T12:33:29.713Z,94.90
2019-01-18T12:36:19.843Z,94.20
2019-01-18T12:38:51.051Z,95.90
2019-01-18T12:41:20.082Z,95.60
2019-01-18T12:43:48.644Z,95.10
2019-01-18T12:46:16.970Z,95.30
2019-01-18T12:48:44.334Z,94.80
2019-01-18T12:51:11.662Z,95.60
2019-01-18T12:53:38.953Z,95.60
2019-01-18T12:56:06.202Z,95.10
2019-01-18T12:58:33.462Z,95.90
2019-01-18T13:01:00.752Z,94.30
2019-01-18T13:03:27.991Z,94.90
2019-01-18T13:05:55.179Z,95.20
2019-01-18T13:08:22.421Z,94.70
2019-01-18T13:10:49.598Z,94.40
2019-01-18T13:13:16.831Z,94.10
2019-01-18T13:16:15.051Z,94.10
2019-01-18T13:18:44.569Z,94.30
2019-01-18T13:21:11.862Z,92.40
2019-01-18T13:23:39.145Z,92.50
2019-01-18T13:26:06.373Z,91.70
2019-01-18T13:28:33.636Z,89.70
2019-01-18T13:31:00.887Z,90.50
2019-01-18T13:33:28.142Z,91.60
2019-01-18T13:35:55.393Z,87.50
2019-01-18T13:38:22.684Z,85.90
2019-01-18T13:40:49.946Z,86.70
2019-01-18T13:43:17.237Z,86.70
2019-01-18T13:45:44.594Z,90.90
2019-01-18T13:48:11.873Z,91.40
2019-01-18T13:50:39.244Z,92.30
2019-01-18T13:53:06.471Z,91.20
2019-01-18T13:55:33.627Z,91.90
2019-01-18T13:58:00.882Z,92.50
2019-01-18T14:00:28.156Z,92.20
2019-01-18T14:02:55.544Z,91.30
2019-01-18T14:05:22.801Z,92.00
2019-01-18T14:07:53.466Z,92.70
2019-01-18T14:10:21.698Z,93.80
2019-01-18T14:12:48.942Z,93.10
2019-01-18T14:15:18.554Z,94.30
2019-01-18T14:17:45.808Z,95.00
2019-01-18T14:20:13.293Z,95.20
2019-01-18T14:22:40.566Z,95.20
2019-01-18T14:25:08.358Z,95.30
2019-01-18T14:27:35.531Z,95.90
2019-01-18T14:30:05.330Z,94.70
2019-01-18T14:32:32.591Z,95.40
2019-01-18T14:34:59.723Z,95.40
2019-01-18T14:37:26.891Z,95.50
2019-01-18T14:39:54.111Z,96.30
2019-01-18T14:42:21.290Z,96.10
2019-01-18T14:44:48.511Z,95.80
2019-01-18T14:47:15.747Z,96.30
2019-01-18T14:49:43.010Z,98.00
2019-01-18T14:52:10.317Z,98.30
2019-01-18T14:54:37.589Z,99.30
2019-01-18T14:57:04.836Z,99.40
2019-01-18T14:59:32.315Z,99.70
2019-01-18T15:01:59.496Z,99.60
2019-01-18T15:04:26.687Z,99.90
2019-01-18T15:06:55.717Z,99.90
2019-01-18T15:09:22.970Z,99.90
2019-01-18T15:11:50.198Z,99.90
2019-01-18T15:14:17.459Z,99.90
2019-01-18T15:16:44.666Z,99.90
2019-01-18T15:19:11.902Z,99.90
2019-01-18T15:21:39.150Z,99.90
2019-01-18T15:24:06.390Z,99.90
2019-01-18T15:26:33.580Z,99.90
2019-01-18T15:29:00.820Z,99.90
2019-01-18T15:31:28.069Z,99.90
2019-01-18T15:33:56.357Z,99.90
2019-01-18T15:36:23.658Z,99.90
2019-01-18T15:38:50.856Z,99.90
2019-01-18T15:41:18.131Z,99.90
2019-01-18T15:43:45.355Z,99.90
2019-01-18T15:46:12.636Z,99.90
2019-01-18T15:48:39.960Z,99.90
2019-01-18T15:51:07.205Z,99.90
2019-01-18T15:53:34.495Z,99.90
2019-01-18T15:56:03.534Z,99.90
2019-01-18T15:58:30.784Z,99.90
2019-01-18T16:00:58.047Z,99.90
2019-01-18T16:03:25.271Z,99.90
2019-01-18T16:05:52.529Z,99.90
2019-01-18T16:08:19.785Z,99.90
2019-01-18T16:10:47.043Z,99.90
2019-01-18T16:13:14.318Z,99.90
2019-01-18T16:16:07.111Z,99.90
2019-01-18T16:18:34.361Z,99.90
2019-01-18T16:21:02.637Z,99.90
2019-01-18T16:23:29.983Z,99.90
2019-01-18T16:25:57.211Z,99.90
2019-01-18T16:28:24.451Z,99.90
2019-01-18T16:30:51.613Z,99.90
2019-01-18T16:33:23.338Z,99.90
2019-01-18T16:35:48.031Z,99.90
2019-01-18T16:38:15.181Z,99.90
2019-01-18T16:40:42.424Z,99.90
2019-01-18T16:43:13.549Z,99.90
2019-01-18T16:45:40.770Z,99.90
2019-01-18T16:48:07.940Z,99.90
2019-01-18T16:50:35.158Z,99.90
2019-01-18T16:53:02.610Z,99.90
2019-01-18T16:55:29.871Z,99.90
2019-01-18T16:57:57.144Z,99.90
2019-01-18T17:00:30.413Z,99.90
2019-01-18T17:02:57.600Z,99.90
2019-01-18T17:05:24.896Z,99.90
2019-01-18T17:07:52.185Z,99.90
2019-01-18T17:10:19.574Z,99.90
2019-01-18T17:12:46.829Z,99.90
2019-01-18T17:15:14.133Z,99.90
2019-01-18T17:17:41.494Z,99.90
2019-01-18T17:20:18.406Z,99.90
2019-01-18T17:22:45.801Z,99.90
2019-01-18T17:25:13.186Z,99.90
2019-01-18T17:27:40.358Z,99.90
2019-01-18T17:30:10.739Z,99.90
2019-01-18T17:32:38.041Z,99.90
2019-01-18T17:35:09.361Z,99.90
2019-01-18T17:37:39.655Z,99.90
2019-01-18T17:40:46.615Z,99.90
2019-01-18T17:43:39.633Z,99.90
2019-01-18T17:46:46.870Z,99.90
2019-01-18T17:50:03.974Z,99.90
2019-01-18T17:53:11.758Z,99.90
2019-01-18T17:56:03.300Z,99.90
2019-01-18T17:58:55.250Z,99.90
2019-01-18T18:02:06.944Z,99.90
2019-01-18T18:05:27.866Z,99.90
2019-01-18T18:08:22.032Z,99.90
2019-01-18T18:11:47.853Z,99.90
2019-01-18T18:14:38.871Z,99.90
2019-01-18T18:17:22.507Z,99.90
2019-01-18T18:20:52.753Z,99.90
2019-01-18T18:23:51.475Z,99.90
2019-01-18T18:26:59.245Z,99.90
2019-01-18T18:30:04.119Z,99.90
2019-01-18T18:33:21.882Z,99.90
2019-01-18T18:36:51.971Z,99.90
2019-01-18T18:40:00.910Z,99.90
2019-01-18T18:42:51.486Z,99.90
2019-01-18T18:45:47.607Z,99.90
2019-01-18T18:48:37.961Z,99.90
2019-01-18T18:51:53.103Z,99.90
2019-01-18T18:54:58.440Z,99.90
2019-01-18T18:58:00.600Z,99.90
2019-01-18T19:01:11.265Z,99.90
2019-01-18T19:04:35.686Z,99.90
2019-01-18T19:07:41.890Z,99.90
2019-01-18T19:10:50.826Z,99.90
2019-01-18T19:13:51.057Z,99.90
2019-01-18T19:16:48.238Z,99.90
2019-01-18T19:19:51.701Z,99.90
2019-01-18T19:22:36.826Z,99.90
2019-01-18T19:25:42.625Z,99.90
2019-01-18T19:28:47.432Z,99.90
2019-01-18T19:32:11.227Z,99.90
2019-01-18T19:34:57.877Z,99.90
2019-01-18T19:38:01.594Z,99.90
2019-01-18T19:40:50.917Z,99.90
2019-01-18T19:43:43.475Z,99.90
2019-01-18T19:46:57.211Z,99.90
2019-01-18T19:50:24.106Z,99.90
2019-01-18T19:53:40.731Z,99.90
2019-01-18T19:57:07.730Z,99.90
2019-01-18T20:00:12.729Z,99.90
2019-01-18T20:03:01.705Z,99.90
2019-01-18T20:05:56.771Z,99.90
2019-01-18T20:09:05.102Z,99.90
2019-01-18T20:11:55.823Z,99.90
2019-01-18T20:14:43.186Z,99.90
2019-01-18T20:17:41.654Z,99.90
2019-01-18T20:21:05.882Z,99.90
2019-01-18T20:24:16.767Z,99.90
2019-01-18T20:27:38.160Z,99.90
2019-01-18T20:30:50.065Z,99.90
2019-01-18T20:34:11.080Z,99.90
2019-01-18T20:37:03.652Z,99.90
2019-01-18T20:40:17.318Z,99.90
2019-01-18T20:43:17.114Z,99.90
2019-01-18T20:46:06.573Z,99.90
2019-01-18T20:48:59.774Z,99.90
2019-01-18T20:51:59.692Z,99.90
2019-01-18T20:55:12.355Z,99.90
2019-01-18T20:58:34.452Z,99.90
2019-01-18T21:01:44.617Z,99.90
2019-01-18T21:04:29.042Z,99.90
2019-01-18T21:07:26.450Z,99.90
2019-01-18T21:10:35.621Z,99.90
2019-01-18T21:13:59.939Z,99.90
2019-01-18T21:17:14.799Z,99.90
2019-01-18T21:20:18.404Z,99.90
2019-01-18T21:23:15.381Z,99.90
2019-01-18T21:26:09.876Z,99.90
2019-01-18T21:29:13.491Z,99.90
2019-01-18T21:32:06.706Z,99.90
2019-01-18T21:35:11.499Z,99.90
2019-01-18T21:37:59.074Z,99.90
2019-01-18T21:41:02.426Z,99.90
2019-01-18T21:44:26.496Z,99.90
2019-01-18T21:47:36.579Z,99.90
2019-01-18T21:50:31.898Z,99.90
2019-01-18T21:53:28.808Z,99.90
2019-01-18T21:56:43.820Z,99.90
2019-01-18T21:59:54.846Z,99.90
2019-01-18T22:02:39.446Z,99.90
2019-01-18T22:05:43.694Z,99.90
2019-01-18T22:08:43.290Z,99.90
2019-01-18T22:12:07.498Z,99.90
2019-01-18T22:14:59.762Z,99.90
2019-01-18T22:18:05.600Z,99.90
2019-01-18T22:21:08.378Z,99.90
2019-01-18T22:23:44.447Z,99.90
2019-01-18T22:26:38.271Z,99.90
2019-01-18T22:29:56.350Z,99.90
2019-01-18T22:32:51.881Z,99.90
2019-01-18T22:35:47.910Z,99.90
2019-01-18T22:39:03.884Z,99.90
2019-01-18T22:42:07.692Z,99.90
2019-01-18T22:45:11.357Z,99.90
2019-01-18T22:48:10.349Z,99.90
2019-01-18T22:51:19.371Z,99.90
2019-01-18T22:54:30.466Z,99.90
2019-01-18T22:57:38.135Z,99.90
2019-01-18T23:00:56.765Z,99.90
2019-01-18T23:04:09.141Z,99.90
2019-01-18T23:07:10.381Z,99.90
2019-01-18T23:10:15.772Z,99.90
2019-01-18T23:12:55.682Z,99.90
2019-01-18T23:16:22.998Z,99.90
2019-01-18T23:18:58.469Z,99.90
2019-01-18T23:22:21.630Z,99.90
2019-01-18T23:25:21.108Z,99.90
2019-01-18T23:28:27.211Z,99.90
2019-01-18T23:31:16.417Z,99.90
2019-01-18T23:33:52.240Z,99.90
2019-01-18T23:36:37.060Z,99.90
2019-01-18T23:39:40.238Z,99.90
2019-01-18T23:42:51.981Z,99.90
2019-01-18T23:45:42.586Z,99.90
2019-01-18T23:48:42.945Z,99.90
2019-01-18T23:51:37.227Z,99.90
2019-01-18T23:54:47.807Z,99.90
2019-01-18T23:57:25.429Z,99.90
